createdAt,value
2023-05-08T00:01:39.991Z,1.50
2023-05-08T00:04:07.967Z,1.93
2023-05-08T00:06:35.726Z,1.70
2023-05-08T00:09:02.868Z,2.07
2023-05-08T00:11:30.454Z,2.00
2023-05-08T00:13:58.277Z,2.03
2023-05-08T00:16:26.050Z,1.90
2023-05-08T00:18:54.210Z,1.93
2023-05-08T00:21:21.607Z,1.57
2023-05-08T00:23:49.578Z,1.40
2023-05-08T00:26:17.390Z,1.57
2023-05-08T00:28:45.379Z,1.80
2023-05-08T00:31:14.250Z,2.00
2023-05-08T00:33:42.226Z,1.97
2023-05-08T00:36:11.081Z,1.77
2023-05-08T00:38:38.534Z,1.60
2023-05-08T00:41:06.930Z,2.00
2023-05-08T00:43:35.794Z,1.70
2023-05-08T00:46:04.185Z,1.70
2023-05-08T00:48:33.850Z,1.73
2023-05-08T00:51:01.047Z,2.10
2023-05-08T00:53:28.522Z,1.90
2023-05-08T00:55:55.598Z,2.07
2023-05-08T00:58:23.104Z,1.37
2023-05-08T01:00:51.115Z,1.50
2023-05-08T01:03:19.464Z,1.97
2023-05-08T01:05:47.424Z,1.60
2023-05-08T01:08:15.457Z,1.63
2023-05-08T01:10:45.476Z,1.70
2023-05-08T01:13:19.211Z,1.77
2023-05-08T01:15:59.055Z,1.60
2023-05-08T01:18:35.914Z,1.70
2023-05-08T01:21:25.130Z,1.40
2023-05-08T01:24:13.064Z,1.67
2023-05-08T01:27:16.461Z,1.40
2023-05-08T01:30:01.956Z,1.30
2023-05-08T01:32:41.646Z,1.20
2023-05-08T01:35:11.586Z,1.13
2023-05-08T01:37:48.372Z,1.20
2023-05-08T01:40:41.543Z,0.90
2023-05-08T01:43:31.637Z,1.40
2023-05-08T01:45:59.189Z,0.97
2023-05-08T01:48:32.131Z,1.00
2023-05-08T01:51:02.448Z,0.83
2023-05-08T01:53:30.301Z,0.87
2023-05-08T01:56:00.306Z,0.90
2023-05-08T01:58:28.573Z,0.97
2023-05-08T02:00:56.153Z,1.00
2023-05-08T02:03:23.967Z,1.10
2023-05-08T02:05:52.366Z,1.03
2023-05-08T02:08:20.049Z,0.80
2023-05-08T02:10:47.471Z,1.37
2023-05-08T02:13:14.667Z,1.07
2023-05-08T02:15:42.359Z,1.20
2023-05-08T02:18:09.488Z,1.23
2023-05-08T02:20:37.222Z,1.10
2023-05-08T02:23:05.438Z,1.17
2023-05-08T02:25:32.998Z,1.20
2023-05-08T02:28:00.500Z,1.17
2023-05-08T02:30:28.478Z,1.30
2023-05-08T02:32:58.283Z,0.80
2023-05-08T02:35:28.124Z,1.30
2023-05-08T02:37:56.441Z,1.20
2023-05-08T02:40:23.959Z,1.37
2023-05-08T02:42:51.772Z,1.10
2023-05-08T02:45:19.479Z,1.00
2023-05-08T02:48:13.561Z,1.40
2023-05-08T02:50:48.652Z,1.10
2023-05-08T02:53:26.820Z,1.23
2023-05-08T02:55:55.165Z,1.20
2023-05-08T02:58:31.797Z,1.10
2023-05-08T03:03:29.375Z,1.10
2023-05-08T03:05:57.518Z,1.23
2023-05-08T03:08:31.521Z,1.40
2023-05-08T03:10:59.753Z,1.20
2023-05-08T03:13:29.797Z,1.10
2023-05-08T03:15:59.502Z,1.30
2023-05-08T03:18:29.133Z,1.20
2023-05-08T03:20:57.086Z,1.53
2023-05-08T03:23:24.732Z,1.33
2023-05-08T03:25:51.761Z,1.50
2023-05-08T03:28:19.341Z,2.10
2023-05-08T03:30:46.821Z,1.63
2023-05-08T03:33:14.359Z,1.60
2023-05-08T03:35:42.313Z,1.63
2023-05-08T03:38:10.211Z,2.00
2023-05-08T03:40:39.010Z,2.20
2023-05-08T03:43:28.740Z,2.23
2023-05-08T03:45:55.749Z,2.43
2023-05-08T03:48:24.244Z,2.27
2023-05-08T03:50:52.219Z,2.20
2023-05-08T03:53:19.650Z,2.37
2023-05-08T03:55:47.544Z,2.70
2023-05-08T03:58:34.817Z,2.43
2023-05-08T04:01:12.462Z,2.70
2023-05-08T04:04:07.975Z,2.70
2023-05-08T04:07:08.640Z,2.90
2023-05-08T04:09:54.297Z,3.07
2023-05-08T04:12:22.711Z,2.80
2023-05-08T04:14:57.067Z,2.33
2023-05-08T04:17:48.013Z,2.57
2023-05-08T04:20:16.797Z,3.10
2023-05-08T04:22:44.347Z,3.07
2023-05-08T04:25:11.618Z,3.17
2023-05-08T04:27:38.752Z,2.57
2023-05-08T04:30:09.783Z,2.97
2023-05-08T04:32:40.116Z,2.67
2023-05-08T04:35:10.174Z,2.70
2023-05-08T04:37:38.270Z,2.60
2023-05-08T04:40:06.876Z,2.63
2023-05-08T04:42:36.725Z,3.00
2023-05-08T04:45:06.994Z,2.57
2023-05-08T04:47:34.860Z,2.67
2023-05-08T04:50:03.345Z,3.10
2023-05-08T04:52:31.645Z,3.30
2023-05-08T04:54:59.455Z,2.70
2023-05-08T04:57:27.413Z,3.20
2023-05-08T04:59:54.992Z,3.40
2023-05-08T05:02:22.905Z,3.37
2023-05-08T05:04:51.244Z,3.97
2023-05-08T05:07:18.680Z,3.63
2023-05-08T05:09:46.598Z,3.60
2023-05-08T05:12:14.485Z,3.97
2023-05-08T05:14:42.335Z,4.17
2023-05-08T05:17:10.490Z,4.17
2023-05-08T05:19:38.813Z,4.13
2023-05-08T05:22:08.153Z,4.37
2023-05-08T05:24:36.265Z,4.23
2023-05-08T05:27:03.458Z,4.30
2023-05-08T05:29:31.195Z,3.90
2023-05-08T05:31:59.238Z,3.73
2023-05-08T05:34:26.792Z,3.87
2023-05-08T05:36:54.566Z,3.83
2023-05-08T05:39:22.090Z,3.80
2023-05-08T05:41:50.032Z,3.60
2023-05-08T05:44:18.965Z,3.90
2023-05-08T05:46:46.859Z,4.30
2023-05-08T05:49:15.158Z,4.13
2023-05-08T05:51:42.842Z,3.50
2023-05-08T05:54:10.487Z,3.67
2023-05-08T05:56:38.414Z,3.60
2023-05-08T05:59:06.946Z,3.50
2023-05-08T06:01:35.261Z,3.40
2023-05-08T06:04:03.173Z,3.47
2023-05-08T06:06:32.519Z,3.10
2023-05-08T06:09:00.298Z,3.20
2023-05-08T06:11:28.577Z,4.00
2023-05-08T06:13:56.076Z,3.63
2023-05-08T06:16:24.946Z,3.70
2023-05-08T06:18:52.869Z,3.80
2023-05-08T06:21:20.339Z,3.50
2023-05-08T06:23:47.844Z,3.63
2023-05-08T06:26:15.615Z,3.37
2023-05-08T06:28:43.448Z,3.13
2023-05-08T06:31:11.140Z,2.80
2023-05-08T06:33:39.950Z,3.20
2023-05-08T06:36:09.319Z,2.90
2023-05-08T06:38:37.081Z,3.07
2023-05-08T06:41:05.160Z,3.03
2023-05-08T06:43:33.175Z,2.97
2023-05-08T06:46:01.219Z,2.67
2023-05-08T06:48:29.379Z,2.93
2023-05-08T06:50:57.026Z,2.90
2023-05-08T06:53:24.923Z,2.83
2023-05-08T06:55:52.672Z,2.87
2023-05-08T06:58:20.142Z,2.73
2023-05-08T07:00:48.057Z,3.00
2023-05-08T07:03:16.226Z,3.03
2023-05-08T07:05:44.076Z,2.97
2023-05-08T07:08:11.957Z,3.40
2023-05-08T07:10:40.111Z,3.23
2023-05-08T07:13:08.238Z,3.47
2023-05-08T07:15:36.460Z,3.47
2023-05-08T07:18:04.650Z,2.97
2023-05-08T07:20:32.716Z,3.50
2023-05-08T07:23:00.689Z,3.53
2023-05-08T07:25:28.493Z,3.33
2023-05-08T07:27:56.092Z,3.33
2023-05-08T07:30:24.068Z,3.70
2023-05-08T07:32:51.634Z,3.10
2023-05-08T07:35:19.669Z,3.13
2023-05-08T07:37:48.127Z,3.20
2023-05-08T07:40:15.848Z,3.23
2023-05-08T07:42:44.184Z,3.07
2023-05-08T07:45:13.098Z,2.97
2023-05-08T07:48:10.141Z,2.97
2023-05-08T07:50:38.142Z,3.13
2023-05-08T07:53:06.668Z,2.90
2023-05-08T07:55:34.704Z,2.60
2023-05-08T07:58:02.137Z,3.30
2023-05-08T08:00:29.923Z,2.77
2023-05-08T08:02:57.848Z,3.27
2023-05-08T08:05:25.371Z,3.30
2023-05-08T08:07:53.115Z,3.20
2023-05-08T08:10:20.903Z,3.40
2023-05-08T08:12:48.449Z,3.40
2023-05-08T08:15:16.114Z,3.33
2023-05-08T08:17:43.573Z,3.30
2023-05-08T08:20:12.844Z,3.33
2023-05-08T08:22:40.371Z,3.60
2023-05-08T08:25:10.425Z,3.23
2023-05-08T08:27:38.087Z,3.30
2023-05-08T08:30:17.715Z,3.43
2023-05-08T08:32:46.316Z,3.37
2023-05-08T08:35:14.739Z,3.43
2023-05-08T08:37:42.982Z,3.90
2023-05-08T08:40:12.048Z,3.50
2023-05-08T08:42:39.590Z,3.40
2023-05-08T08:45:11.783Z,3.80
2023-05-08T08:47:41.379Z,3.70
2023-05-08T08:50:13.647Z,4.10
2023-05-08T08:52:52.144Z,3.90
2023-05-08T08:55:19.417Z,3.77
2023-05-08T08:58:12.523Z,5.70
2023-05-08T09:00:40.597Z,4.80
2023-05-08T09:03:08.609Z,4.30
2023-05-08T09:05:36.258Z,4.10
2023-05-08T09:08:03.815Z,4.20
2023-05-08T09:10:31.861Z,4.53
2023-05-08T09:12:59.988Z,4.03
2023-05-08T09:15:27.636Z,4.40
2023-05-08T09:17:55.888Z,4.37
2023-05-08T09:20:23.979Z,4.60
2023-05-08T09:22:51.911Z,4.60
2023-05-08T09:25:19.920Z,4.90
2023-05-08T09:27:48.050Z,5.00
2023-05-08T09:30:15.890Z,4.73
2023-05-08T09:32:44.231Z,4.87
2023-05-08T09:35:11.963Z,4.53
2023-05-08T09:37:40.386Z,4.13
2023-05-08T09:40:16.880Z,4.63
2023-05-08T09:42:44.513Z,3.97
2023-05-08T09:45:13.138Z,4.27
2023-05-08T09:47:40.442Z,4.17
2023-05-08T09:50:08.377Z,4.07
2023-05-08T09:52:36.737Z,4.30
2023-05-08T09:55:08.380Z,4.33
2023-05-08T09:57:38.514Z,4.30
2023-05-08T10:00:36.698Z,3.93
2023-05-08T10:03:04.895Z,4.70
2023-05-08T10:05:35.613Z,4.10
2023-05-08T10:08:19.890Z,4.30
2023-05-08T10:10:48.002Z,4.80
2023-05-08T10:13:16.162Z,3.90
2023-05-08T10:15:44.388Z,3.77
2023-05-08T10:18:14.635Z,4.10
2023-05-08T10:20:44.422Z,3.60
2023-05-08T10:23:15.616Z,4.10
2023-05-08T10:25:46.398Z,4.23
2023-05-08T10:28:41.434Z,3.87
2023-05-08T10:31:09.061Z,4.17
2023-05-08T10:33:36.204Z,3.60
2023-05-08T10:36:04.436Z,3.80
2023-05-08T10:38:32.396Z,3.97
2023-05-08T10:41:03.374Z,4.30
2023-05-08T10:43:34.336Z,4.10
2023-05-08T10:46:06.997Z,4.60
2023-05-08T10:49:12.299Z,4.13
2023-05-08T10:51:53.466Z,4.03
2023-05-08T10:54:39.653Z,4.23
2023-05-08T10:57:32.397Z,3.58
2023-05-08T11:00:00.357Z,3.77
2023-05-08T11:02:33.169Z,4.20
2023-05-08T11:05:38.005Z,4.23
2023-05-08T11:08:15.602Z,4.13
2023-05-08T11:10:43.418Z,4.10
2023-05-08T11:13:11.158Z,4.20
2023-05-08T11:15:40.550Z,4.00
2023-05-08T11:18:11.523Z,6.33
2023-05-08T11:21:00.958Z,4.50
2023-05-08T11:23:28.843Z,3.93
2023-05-08T11:26:04.186Z,4.17
2023-05-08T11:28:57.187Z,4.03
2023-05-08T11:31:24.972Z,4.30
2023-05-08T11:33:52.407Z,4.10
2023-05-08T11:36:22.239Z,4.90
2023-05-08T11:39:15.628Z,4.50
2023-05-08T11:41:43.586Z,4.33
2023-05-08T11:44:21.316Z,4.47
2023-05-08T11:46:51.788Z,4.70
2023-05-08T11:49:26.284Z,4.30
2023-05-08T11:51:55.480Z,4.57
2023-05-08T11:54:23.089Z,4.50
2023-05-08T11:56:51.485Z,4.67
2023-05-08T11:59:19.374Z,4.80
2023-05-08T12:02:06.888Z,4.72
2023-05-08T12:04:43.664Z,5.15
2023-05-08T12:07:11.751Z,4.80
2023-05-08T12:09:39.971Z,4.25
2023-05-08T12:12:07.746Z,4.32
2023-05-08T12:14:35.741Z,3.67
2023-05-08T12:17:03.762Z,3.40
2023-05-08T12:19:31.720Z,3.42
2023-05-08T12:21:59.645Z,3.30
2023-05-08T12:24:27.263Z,2.60
2023-05-08T12:26:56.135Z,2.50
2023-05-08T12:29:28.873Z,2.13
2023-05-08T12:31:56.466Z,2.40
2023-05-08T12:34:24.284Z,2.60
2023-05-08T12:37:04.640Z,2.47
2023-05-08T12:39:34.980Z,2.30
2023-05-08T12:42:02.827Z,2.33
2023-05-08T12:44:29.918Z,2.75
2023-05-08T12:46:57.846Z,2.00
2023-05-08T12:49:30.229Z,2.70
2023-05-08T12:52:14.298Z,2.83
2023-05-08T12:54:48.626Z,2.10
2023-05-08T12:57:17.393Z,2.22
2023-05-08T12:59:45.193Z,1.90
2023-05-08T13:02:19.339Z,2.60
2023-05-08T13:04:46.775Z,2.38
2023-05-08T13:07:14.129Z,3.03
2023-05-08T13:09:41.066Z,2.53
2023-05-08T13:12:09.327Z,2.85
2023-05-08T13:14:37.233Z,2.78
2023-05-08T13:17:05.641Z,3.17
2023-05-08T13:19:36.867Z,2.50
2023-05-08T13:22:04.676Z,2.85
2023-05-08T13:24:32.532Z,3.10
2023-05-08T13:27:00.359Z,2.42
2023-05-08T13:29:28.178Z,2.95
2023-05-08T13:31:56.031Z,2.90
2023-05-08T13:34:25.437Z,2.97
2023-05-08T13:36:53.661Z,3.15
2023-05-08T13:39:21.745Z,3.40
2023-05-08T13:41:49.604Z,3.20
2023-05-08T13:44:17.476Z,2.47
2023-05-08T13:46:44.955Z,2.65
2023-05-08T13:49:12.583Z,3.00
2023-05-08T13:51:40.427Z,2.47
2023-05-08T13:54:08.501Z,3.10
2023-05-08T13:56:36.691Z,2.45
2023-05-08T13:59:04.576Z,2.80
2023-05-08T14:01:32.662Z,2.58
2023-05-08T14:04:00.808Z,2.45
2023-05-08T14:06:28.947Z,2.47
2023-05-08T14:08:57.340Z,2.10
2023-05-08T14:11:25.508Z,2.03
2023-05-08T14:13:56.628Z,2.40
2023-05-08T14:16:23.311Z,1.95
2023-05-08T14:18:50.988Z,2.50
2023-05-08T14:21:18.476Z,1.70
2023-05-08T14:23:45.879Z,1.88
2023-05-08T14:26:13.797Z,1.80
2023-05-08T14:28:41.717Z,1.80
2023-05-08T14:31:09.761Z,1.38
2023-05-08T14:33:37.967Z,1.67
2023-05-08T14:36:06.764Z,1.30
2023-05-08T14:38:34.780Z,1.60
2023-05-08T14:41:05.009Z,1.73
2023-05-08T14:43:32.909Z,1.73
2023-05-08T14:46:00.542Z,1.40
2023-05-08T14:48:28.549Z,1.50
2023-05-08T14:50:57.237Z,1.60
2023-05-08T14:53:25.381Z,1.85
2023-05-08T14:55:53.624Z,1.98
2023-05-08T14:58:21.260Z,2.22
2023-05-08T15:00:49.101Z,2.03
2023-05-08T15:03:16.840Z,1.83
2023-05-08T15:05:44.881Z,1.80
2023-05-08T15:08:12.810Z,2.17
2023-05-08T15:10:40.888Z,1.98
2023-05-08T15:13:08.696Z,2.10
2023-05-08T15:15:36.258Z,2.03
2023-05-08T15:18:07.896Z,1.90
2023-05-08T15:20:35.390Z,2.28
2023-05-08T15:23:03.306Z,2.22
2023-05-08T15:25:31.431Z,2.08
2023-05-08T15:28:00.891Z,2.15
2023-05-08T15:30:28.807Z,2.40
2023-05-08T15:32:56.711Z,2.60
2023-05-08T15:35:24.885Z,1.98
2023-05-08T15:37:53.071Z,2.55
2023-05-08T15:40:21.411Z,2.53
2023-05-08T15:42:48.908Z,3.05
2023-05-08T15:45:16.592Z,2.55
2023-05-08T15:47:44.194Z,2.85
2023-05-08T15:50:12.682Z,2.70
2023-05-08T15:52:40.201Z,2.00
2023-05-08T15:55:09.131Z,2.20
2023-05-08T15:57:37.026Z,2.65
2023-05-08T16:00:06.748Z,2.65
2023-05-08T16:02:34.238Z,2.60
2023-05-08T16:05:02.080Z,3.20
2023-05-08T16:07:30.043Z,2.60
2023-05-08T16:09:58.010Z,2.50
2023-05-08T16:12:26.399Z,2.13
2023-05-08T16:14:54.291Z,2.22
2023-05-08T16:17:21.788Z,3.03
2023-05-08T16:19:49.539Z,2.80
2023-05-08T16:22:20.467Z,2.30
2023-05-08T16:24:48.315Z,3.13
2023-05-08T16:27:15.776Z,3.05
2023-05-08T16:29:43.279Z,3.42
2023-05-08T16:32:11.264Z,2.22
2023-05-08T16:34:38.806Z,2.30
2023-05-08T16:37:06.768Z,2.13
2023-05-08T16:39:35.436Z,2.60
2023-05-08T16:42:03.105Z,2.53
2023-05-08T16:44:30.668Z,2.17
2023-05-08T16:46:58.332Z,2.20
2023-05-08T16:49:27.820Z,2.60
2023-05-08T16:51:56.236Z,2.58
2023-05-08T16:54:24.153Z,2.70
2023-05-08T16:56:52.443Z,2.45
2023-05-08T16:59:20.394Z,2.13
2023-05-08T17:01:47.833Z,2.60
2023-05-08T17:04:15.639Z,2.42
2023-05-08T17:06:43.424Z,2.53
2023-05-08T17:09:11.055Z,2.47
2023-05-08T17:11:38.620Z,3.30
2023-05-08T17:14:06.164Z,4.63
2023-05-08T17:16:34.076Z,3.80
2023-05-08T17:19:01.756Z,3.30
2023-05-08T17:21:31.119Z,3.27
2023-05-08T17:24:01.315Z,3.83
2023-05-08T17:26:32.076Z,5.45
2023-05-08T17:29:00.152Z,4.75
2023-05-08T17:31:27.963Z,4.20
2023-05-08T17:33:55.627Z,3.13
2023-05-08T17:36:23.469Z,3.67
2023-05-08T17:38:52.106Z,6.20
2023-05-08T17:41:19.742Z,8.37
2023-05-08T17:43:47.580Z,6.37
2023-05-08T17:46:15.692Z,7.87
2023-05-08T17:48:43.213Z,4.37
2023-05-08T17:51:13.952Z,6.83
2023-05-08T17:53:41.559Z,7.40
2023-05-08T17:56:09.694Z,5.17
2023-05-08T17:58:38.052Z,4.83
2023-05-08T18:01:07.283Z,4.87
2023-05-08T18:03:35.297Z,5.53
2023-05-08T18:06:02.818Z,7.60
2023-05-08T18:08:34.006Z,4.17
2023-05-08T18:11:01.523Z,5.53
2023-05-08T18:13:29.535Z,5.97
2023-05-08T18:15:57.162Z,5.87
2023-05-08T18:18:24.671Z,5.17
2023-05-08T18:20:52.571Z,18.27
2023-05-08T18:23:22.220Z,6.40
2023-05-08T18:25:50.177Z,11.23
2023-05-08T18:28:17.998Z,14.30
2023-05-08T18:30:46.075Z,12.27
2023-05-08T18:33:13.951Z,15.63
2023-05-08T18:35:45.173Z,10.43
2023-05-08T18:38:13.031Z,25.30
2023-05-08T18:40:40.575Z,11.60
2023-05-08T18:43:08.892Z,5.13
2023-05-08T18:45:40.312Z,3.77
2023-05-08T18:48:11.428Z,3.80
2023-05-08T18:50:39.931Z,3.50
2023-05-08T18:53:11.114Z,3.73
2023-05-08T18:55:38.936Z,3.60
2023-05-08T18:58:06.602Z,4.10
2023-05-08T19:00:34.160Z,4.20
2023-05-08T19:03:02.225Z,4.60
2023-05-08T19:05:30.321Z,4.07
2023-05-08T19:07:58.446Z,3.93
2023-05-08T19:10:25.966Z,4.03
2023-05-08T19:12:54.060Z,3.83
2023-05-08T19:15:21.928Z,4.00
2023-05-08T19:17:49.440Z,4.00
2023-05-08T19:20:37.366Z,4.03
2023-05-08T19:23:05.311Z,4.10
2023-05-08T19:25:33.104Z,4.00
2023-05-08T19:28:00.755Z,4.30
2023-05-08T19:30:28.661Z,4.00
2023-05-08T19:32:56.600Z,4.00
2023-05-08T19:35:24.794Z,3.60
2023-05-08T19:37:52.458Z,4.30
2023-05-08T19:40:20.254Z,4.37
2023-05-08T19:42:48.154Z,3.90
2023-05-08T19:45:16.462Z,4.27
2023-05-08T19:47:45.664Z,3.87
2023-05-08T19:50:17.905Z,4.10
2023-05-08T19:52:49.590Z,4.20
2023-05-08T19:55:17.493Z,4.27
2023-05-08T19:57:45.012Z,4.60
2023-05-08T20:00:13.375Z,4.50
2023-05-08T20:02:45.249Z,4.53
2023-05-08T20:07:44.034Z,3.83
2023-05-08T20:10:12.437Z,4.27
2023-05-08T20:12:40.126Z,4.23
2023-05-08T20:15:10.962Z,4.27
2023-05-08T20:17:38.400Z,3.90
2023-05-08T20:20:09.744Z,4.23
2023-05-08T20:22:38.100Z,4.33
2023-05-08T20:25:07.290Z,4.60
2023-05-08T20:27:35.207Z,5.00
2023-05-08T20:30:03.191Z,4.50
2023-05-08T20:32:31.266Z,4.63
2023-05-08T20:34:58.879Z,4.73
2023-05-08T20:37:26.363Z,4.73
2023-05-08T20:39:53.942Z,4.60
2023-05-08T20:42:21.828Z,4.40
2023-05-08T20:44:49.590Z,4.70
2023-05-08T20:47:21.233Z,5.07
2023-05-08T20:49:48.633Z,4.57
2023-05-08T20:52:16.530Z,5.13
2023-05-08T20:54:45.978Z,5.23
2023-05-08T20:57:14.368Z,5.73
2023-05-08T20:59:42.219Z,4.67
2023-05-08T21:02:13.804Z,4.90
2023-05-08T21:04:41.990Z,5.50
2023-05-08T21:07:09.949Z,5.17
2023-05-08T21:09:38.102Z,5.43
2023-05-08T21:12:06.781Z,5.67
2023-05-08T21:14:34.828Z,5.47
2023-05-08T21:17:02.812Z,5.77
2023-05-08T21:19:32.255Z,6.40
2023-05-08T21:21:59.661Z,6.23
2023-05-08T21:24:27.658Z,5.70
2023-05-08T21:26:56.046Z,6.07
2023-05-08T21:29:23.925Z,6.30
2023-05-08T21:31:51.328Z,5.93
2023-05-08T21:34:21.381Z,6.03
2023-05-08T21:36:49.248Z,6.20
2023-05-08T21:39:16.867Z,6.30
2023-05-08T21:41:45.354Z,6.30
2023-05-08T21:44:12.939Z,6.63
2023-05-08T21:46:40.900Z,7.30
2023-05-08T21:49:09.297Z,7.10
2023-05-08T21:51:36.760Z,7.33
2023-05-08T21:54:05.468Z,7.03
2023-05-08T21:56:33.246Z,6.80
2023-05-08T21:59:01.034Z,7.50
2023-05-08T22:01:28.598Z,7.53
2023-05-08T22:03:56.185Z,7.63
2023-05-08T22:06:24.277Z,7.10
2023-05-08T22:08:52.318Z,7.33
2023-05-08T22:11:20.296Z,7.13
2023-05-08T22:13:48.248Z,6.57
2023-05-08T22:16:15.851Z,7.00
2023-05-08T22:18:44.499Z,7.70
2023-05-08T22:21:11.978Z,7.37
2023-05-08T22:23:39.969Z,7.27
2023-05-08T22:26:07.612Z,7.30
2023-05-08T22:28:35.225Z,6.73
2023-05-08T22:31:02.737Z,7.23
2023-05-08T22:33:33.912Z,6.90
2023-05-08T22:36:01.671Z,7.90
2023-05-08T22:38:29.920Z,6.70
2023-05-08T22:41:00.116Z,6.77
2023-05-08T22:43:27.900Z,6.37
2023-05-08T22:45:55.967Z,5.07
2023-05-08T22:48:23.469Z,5.10
2023-05-08T22:50:50.690Z,4.33
2023-05-08T22:53:18.460Z,4.80
2023-05-08T22:55:46.311Z,4.47
2023-05-08T22:58:14.144Z,4.50
2023-05-08T23:00:42.492Z,4.67
2023-05-08T23:03:10.397Z,4.60
2023-05-08T23:05:38.267Z,4.17
2023-05-08T23:08:07.299Z,3.97
2023-05-08T23:10:35.466Z,3.80
2023-05-08T23:13:05.369Z,3.70
2023-05-08T23:15:32.953Z,3.90
2023-05-08T23:18:00.944Z,3.57
2023-05-08T23:20:28.983Z,3.90
2023-05-08T23:22:56.628Z,3.47
2023-05-08T23:25:25.225Z,3.70
2023-05-08T23:27:53.156Z,3.67
2023-05-08T23:30:20.764Z,3.67
2023-05-08T23:32:48.675Z,3.80
2023-05-08T23:35:16.851Z,3.90
2023-05-08T23:37:44.756Z,3.80
2023-05-08T23:40:14.338Z,4.10
2023-05-08T23:42:42.036Z,3.70
2023-05-08T23:45:12.453Z,3.30
2023-05-08T23:47:40.294Z,3.03
2023-05-08T23:50:08.971Z,3.47
2023-05-08T23:52:37.023Z,3.57
2023-05-08T23:55:06.447Z,3.30
2023-05-08T23:57:34.136Z,3.30
